Terminal Aerodrome Forecast
Issued by NWS

Home | Current Version | Previous Version | Text Only | Print | Product List | Glossary On
Versions: 1 2 3 4 5 6 7 8 9 10 11 12 13 14 15 16 17
898
FTUS43 KGRR 071152
TAFMKG
TAF
KMKG 071152Z 0712/0812 25013G23KT P6SM OVC025
     FM080000 26015G25KT P6SM OVC025
     FM080600 27015G25KT 3SM -SHSN BR OVC020
     FM081000 27015G25KT 1SM -SHSN BR OVC010=

USA.gov is the U.S. government's official web portal to all federal, state and local government web resources and services.